createdAt,value
2022-09-04T00:01:21.511Z,20.85
2022-09-04T00:02:34.923Z,21.30
2022-09-04T00:03:50.563Z,20.58
2022-09-04T00:05:22.829Z,20.50
2022-09-04T00:06:32.561Z,20.50
2022-09-04T00:08:03.106Z,20.25
2022-09-04T00:09:25.417Z,18.75
2022-09-04T00:10:53.707Z,18.00
2022-09-04T00:12:08.840Z,18.88
2022-09-04T00:13:31.891Z,17.90
2022-09-04T00:14:47.549Z,18.00
2022-09-04T00:16:04.884Z,17.60
2022-09-04T00:17:14.814Z,17.20
2022-09-04T00:18:41.579Z,17.58
2022-09-04T00:19:59.578Z,17.48
2022-09-04T00:21:11.888Z,16.55
2022-09-04T00:22:42.063Z,16.45
2022-09-04T00:24:08.238Z,15.50
2022-09-04T00:25:18.056Z,15.25
2022-09-04T00:26:40.938Z,14.82
2022-09-04T00:27:46.127Z,16.00
2022-09-04T00:28:55.964Z,14.63
2022-09-04T00:30:11.540Z,14.38
2022-09-04T00:31:13.512Z,14.90
2022-09-04T00:32:51.976Z,14.00
2022-09-04T00:34:11.811Z,13.50
2022-09-04T00:35:18.737Z,13.88
2022-09-04T00:36:24.366Z,13.15
2022-09-04T00:37:33.242Z,14.75
2022-09-04T00:38:51.065Z,12.85
2022-09-04T00:40:02.441Z,14.57
2022-09-04T00:41:33.781Z,13.43
2022-09-04T00:43:02.221Z,15.05
2022-09-04T00:44:12.854Z,15.43
2022-09-04T00:45:33.015Z,15.20
2022-09-04T00:46:47.745Z,15.45
2022-09-04T00:48:01.219Z,14.70
2022-09-04T00:49:36.600Z,14.80
2022-09-04T00:51:03.800Z,15.10
2022-09-04T00:52:20.152Z,15.13
2022-09-04T00:53:46.080Z,14.13
2022-09-04T00:55:32.575Z,14.48
2022-09-04T00:56:56.218Z,13.20
2022-09-04T00:58:17.629Z,13.38
2022-09-04T00:59:48.479Z,12.93
2022-09-04T01:00:53.182Z,12.50
2022-09-04T01:02:02.072Z,12.35
2022-09-04T01:03:59.353Z,12.85
2022-09-04T01:05:26.768Z,12.60
2022-09-04T01:06:40.790Z,11.70
2022-09-04T01:07:43.019Z,11.43
2022-09-04T01:09:12.499Z,11.73
2022-09-04T01:10:28.601Z,11.50
2022-09-04T01:12:06.376Z,10.85
2022-09-04T01:13:41.504Z,10.88
2022-09-04T01:15:14.506Z,10.32
2022-09-04T01:16:32.414Z,9.35
2022-09-04T01:17:42.408Z,9.68
2022-09-04T01:19:11.033Z,9.68
2022-09-04T01:20:43.289Z,9.50
2022-09-04T01:22:17.269Z,9.35
2022-09-04T01:23:24.452Z,9.32
2022-09-04T01:24:47.594Z,9.25
2022-09-04T01:26:03.185Z,8.73
2022-09-04T01:27:20.488Z,9.25
2022-09-04T01:28:28.183Z,8.20
2022-09-04T01:29:45.466Z,9.30
2022-09-04T01:31:00.074Z,8.68
2022-09-04T01:32:12.554Z,7.97
2022-09-04T01:33:30.885Z,8.30
2022-09-04T01:34:45.313Z,8.40
2022-09-04T01:36:02.156Z,8.18
2022-09-04T01:37:27.434Z,7.50
2022-09-04T01:38:55.704Z,7.40
2022-09-04T01:40:22.275Z,7.60
2022-09-04T01:41:36.342Z,7.00
2022-09-04T01:42:56.057Z,6.72
2022-09-04T01:43:57.667Z,6.50
2022-09-04T01:44:59.218Z,6.80
2022-09-04T01:46:22.467Z,6.90
2022-09-04T01:47:56.486Z,6.38
2022-09-04T01:49:16.781Z,6.45
2022-09-04T01:50:26.460Z,6.20
2022-09-04T01:51:45.663Z,6.35
2022-09-04T01:53:10.771Z,6.10
2022-09-04T01:54:43.044Z,6.35
2022-09-04T01:55:57.410Z,5.70
2022-09-04T01:57:10.927Z,5.85
2022-09-04T01:58:35.469Z,5.65
2022-09-04T02:00:05.015Z,5.90
2022-09-04T02:01:31.376Z,5.88
2022-09-04T02:02:53.510Z,5.45
2022-09-04T02:04:08.180Z,5.60
2022-09-04T02:05:20.424Z,5.53
2022-09-04T02:06:51.661Z,5.45
2022-09-04T02:08:08.311Z,5.65
2022-09-04T02:09:29.506Z,5.60
2022-09-04T02:10:45.360Z,5.90
2022-09-04T02:11:57.149Z,5.82
2022-09-04T02:13:02.815Z,6.13
2022-09-04T02:14:27.060Z,6.38
2022-09-04T02:15:31.609Z,6.22
2022-09-04T02:17:01.154Z,6.20
2022-09-04T02:18:20.969Z,6.43
2022-09-04T02:19:37.657Z,6.15
2022-09-04T02:20:55.501Z,6.40
2022-09-04T02:22:12.605Z,6.30
2022-09-04T02:23:14.201Z,6.53
2022-09-04T02:24:27.740Z,6.75
2022-09-04T02:25:48.150Z,6.63
2022-09-04T02:27:05.556Z,6.47
2022-09-04T02:28:09.836Z,7.15
2022-09-04T02:29:36.815Z,6.90
2022-09-04T02:30:54.242Z,7.25
2022-09-04T02:32:05.316Z,8.25
2022-09-04T02:33:24.751Z,7.70
2022-09-04T02:34:41.236Z,8.02
2022-09-04T02:35:54.935Z,7.60
2022-09-04T02:37:20.135Z,7.95
2022-09-04T02:38:56.372Z,8.00
2022-09-04T02:40:13.710Z,7.07
2022-09-04T02:41:26.695Z,7.40
2022-09-04T02:42:32.386Z,8.35
2022-09-04T02:43:36.617Z,7.30
2022-09-04T02:45:15.277Z,7.70
2022-09-04T02:46:28.829Z,7.35
2022-09-04T02:48:17.785Z,8.00
2022-09-04T02:49:30.486Z,8.27
2022-09-04T02:50:59.546Z,7.10
2022-09-04T02:52:33.354Z,8.00
2022-09-04T02:54:11.496Z,6.90
2022-09-04T02:56:01.873Z,6.93
2022-09-04T02:57:29.416Z,7.25
2022-09-04T02:58:58.716Z,7.25
2022-09-04T03:00:18.212Z,7.25
2022-09-04T03:01:51.966Z,7.18
2022-09-04T03:03:05.580Z,6.85
2022-09-04T03:04:42.070Z,6.93
2022-09-04T03:06:23.046Z,7.03
2022-09-04T03:07:35.237Z,6.88
2022-09-04T03:08:46.087Z,6.68
2022-09-04T03:09:59.105Z,6.78
2022-09-04T03:11:06.709Z,6.55
2022-09-04T03:12:34.528Z,7.28
2022-09-04T03:13:47.182Z,6.72
2022-09-04T03:14:58.261Z,6.65
2022-09-04T03:16:24.488Z,6.30
2022-09-04T03:17:42.065Z,7.00
2022-09-04T03:19:01.520Z,6.15
2022-09-04T03:20:08.247Z,6.93
2022-09-04T03:21:16.599Z,6.50
2022-09-04T03:22:45.234Z,6.18
2022-09-04T03:23:52.481Z,6.25
2022-09-04T03:25:03.329Z,6.82
2022-09-04T03:26:20.451Z,6.70
2022-09-04T03:27:22.333Z,6.70
2022-09-04T03:29:11.608Z,6.78
2022-09-04T03:30:14.665Z,6.40
2022-09-04T03:31:38.642Z,6.32
2022-09-04T03:32:46.036Z,6.45
2022-09-04T03:33:59.060Z,6.13
2022-09-04T03:35:42.660Z,5.97
2022-09-04T03:37:10.242Z,6.40
2022-09-04T03:38:29.733Z,6.22
2022-09-04T03:39:59.443Z,6.40
2022-09-04T03:41:11.360Z,6.43
2022-09-04T03:42:26.440Z,6.60
2022-09-04T03:43:50.177Z,6.47
2022-09-04T03:45:23.039Z,6.13
2022-09-04T03:46:37.891Z,6.43
2022-09-04T03:47:56.723Z,6.75
2022-09-04T03:49:08.967Z,6.43
2022-09-04T03:50:35.548Z,6.18
2022-09-04T03:51:46.056Z,6.22
2022-09-04T03:52:57.054Z,6.72
2022-09-04T03:54:12.171Z,6.30
2022-09-04T03:55:52.724Z,6.20
2022-09-04T03:57:19.816Z,6.20
2022-09-04T03:58:35.529Z,6.15
2022-09-04T03:59:54.942Z,6.20
2022-09-04T04:01:13.845Z,5.80
2022-09-04T04:02:43.568Z,6.53
2022-09-04T04:04:17.190Z,6.55
2022-09-04T04:05:40.426Z,6.50
2022-09-04T04:06:51.200Z,6.35
2022-09-04T04:08:08.281Z,6.25
2022-09-04T04:09:25.044Z,6.32
2022-09-04T04:11:12.002Z,6.35
2022-09-04T04:12:19.401Z,6.57
2022-09-04T04:13:34.704Z,5.70
2022-09-04T04:14:57.174Z,6.72
2022-09-04T04:16:31.315Z,6.43
2022-09-04T04:17:53.201Z,7.25
2022-09-04T04:19:20.561Z,6.85
2022-09-04T04:20:40.252Z,6.78
2022-09-04T04:21:55.973Z,6.28
2022-09-04T04:22:57.569Z,6.05
2022-09-04T04:24:09.728Z,6.15
2022-09-04T04:25:39.187Z,6.47
2022-09-04T04:27:04.075Z,6.32
2022-09-04T04:28:37.671Z,6.75
2022-09-04T04:30:05.945Z,6.25
2022-09-04T04:31:16.539Z,6.72
2022-09-04T04:32:29.821Z,6.38
2022-09-04T04:33:50.764Z,6.25
2022-09-04T04:35:04.293Z,6.20
2022-09-04T04:36:58.299Z,6.10
2022-09-04T04:38:08.743Z,6.38
2022-09-04T04:39:32.755Z,6.10
2022-09-04T04:41:11.689Z,6.20
2022-09-04T04:42:31.794Z,6.30
2022-09-04T04:44:02.405Z,6.25
2022-09-04T04:45:40.188Z,5.80
2022-09-04T04:46:55.261Z,5.95
2022-09-04T04:48:08.512Z,6.10
2022-09-04T04:49:27.429Z,6.20
2022-09-04T04:51:06.324Z,5.90
2022-09-04T04:52:51.847Z,5.68
2022-09-04T04:54:28.543Z,6.22
2022-09-04T04:55:49.349Z,5.75
2022-09-04T04:56:54.392Z,5.80
2022-09-04T04:58:14.497Z,6.05
2022-09-04T04:59:38.081Z,6.07
2022-09-04T05:01:11.988Z,5.55
2022-09-04T05:02:26.589Z,5.78
2022-09-04T05:03:56.180Z,5.78
2022-09-04T05:05:15.040Z,5.90
2022-09-04T05:06:26.196Z,5.53
2022-09-04T05:07:37.252Z,5.75
2022-09-04T05:08:48.169Z,5.50
2022-09-04T05:10:06.288Z,5.95
2022-09-04T05:11:14.839Z,6.13
2022-09-04T05:12:22.428Z,6.05
2022-09-04T05:13:42.606Z,6.35
2022-09-04T05:14:47.662Z,5.60
2022-09-04T05:16:09.382Z,5.97
2022-09-04T05:17:17.157Z,6.15
2022-09-04T05:18:27.803Z,6.20
2022-09-04T05:19:38.497Z,6.18
2022-09-04T05:21:08.218Z,5.72
2022-09-04T05:22:25.441Z,5.90
2022-09-04T05:23:36.150Z,6.10
2022-09-04T05:24:54.071Z,5.82
2022-09-04T05:26:08.045Z,6.05
2022-09-04T05:27:18.594Z,6.10
2022-09-04T05:28:44.769Z,6.00
2022-09-04T05:29:55.946Z,6.22
2022-09-04T05:31:12.651Z,6.50
2022-09-04T05:32:28.624Z,5.63
2022-09-04T05:33:57.196Z,6.22
2022-09-04T05:35:35.262Z,5.60
2022-09-04T05:36:37.536Z,5.85
2022-09-04T05:37:59.163Z,6.40
2022-09-04T05:39:36.687Z,5.82
2022-09-04T05:40:56.333Z,6.25
2022-09-04T05:42:07.033Z,6.13
2022-09-04T05:43:11.405Z,6.10
2022-09-04T05:44:32.218Z,6.15
2022-09-04T05:45:55.101Z,5.97
2022-09-04T05:47:18.908Z,6.13
2022-09-04T05:48:26.849Z,6.03
2022-09-04T05:49:46.774Z,6.20
2022-09-04T05:51:27.138Z,6.57
2022-09-04T05:52:54.616Z,6.55
2022-09-04T05:54:25.642Z,6.10
2022-09-04T05:55:45.948Z,6.63
2022-09-04T05:57:02.406Z,6.13
2022-09-04T05:58:44.987Z,6.32
2022-09-04T06:00:10.148Z,6.50
2022-09-04T06:01:49.873Z,5.88
2022-09-04T06:03:16.329Z,6.47
2022-09-04T06:04:42.183Z,6.50
2022-09-04T06:06:11.483Z,7.80
2022-09-04T06:07:18.426Z,6.25
2022-09-04T06:08:20.034Z,6.53
2022-09-04T06:09:41.402Z,6.50
2022-09-04T06:11:06.144Z,6.28
2022-09-04T06:12:45.721Z,6.32
2022-09-04T06:13:58.366Z,6.35
2022-09-04T06:15:21.639Z,6.10
2022-09-04T06:16:29.139Z,6.05
2022-09-04T06:17:42.817Z,7.03
2022-09-04T06:19:06.081Z,6.80
2022-09-04T06:20:27.176Z,6.95
2022-09-04T06:21:37.715Z,6.30
2022-09-04T06:23:11.710Z,6.40
2022-09-04T06:24:56.922Z,6.43
2022-09-04T06:26:15.350Z,6.65
2022-09-04T06:27:42.038Z,6.40
2022-09-04T06:29:00.488Z,6.60
2022-09-04T06:30:13.845Z,6.78
2022-09-04T06:31:21.622Z,6.68
2022-09-04T06:32:41.857Z,6.50
2022-09-04T06:34:11.170Z,7.00
2022-09-04T06:35:31.839Z,6.32
2022-09-04T06:37:31.595Z,6.82
2022-09-04T06:39:21.182Z,6.00
2022-09-04T06:40:42.860Z,6.63
2022-09-04T06:42:14.573Z,6.85
2022-09-04T06:43:37.976Z,10.35
2022-09-04T06:45:05.439Z,6.95
2022-09-04T06:46:23.979Z,9.20
2022-09-04T06:47:50.886Z,9.13
2022-09-04T06:49:03.259Z,8.88
2022-09-04T06:50:29.920Z,7.57
2022-09-04T06:51:37.205Z,8.43
2022-09-04T06:53:05.682Z,7.90
2022-09-04T06:54:44.620Z,7.35
2022-09-04T06:56:18.555Z,7.68
2022-09-04T06:57:46.424Z,7.88
2022-09-04T06:59:01.036Z,7.78
2022-09-04T07:00:12.173Z,7.60
2022-09-04T07:01:19.763Z,7.45
2022-09-04T07:02:40.280Z,7.82
2022-09-04T07:04:05.590Z,9.55
2022-09-04T07:05:44.056Z,8.23
2022-09-04T07:07:05.236Z,7.30
2022-09-04T07:08:09.823Z,7.20
2022-09-04T07:09:23.276Z,7.55
2022-09-04T07:10:36.030Z,8.35
2022-09-04T07:11:52.746Z,6.97
2022-09-04T07:13:16.823Z,7.28
2022-09-04T07:14:36.881Z,7.50
2022-09-04T07:15:57.835Z,7.57
2022-09-04T07:17:27.944Z,6.93
2022-09-04T07:19:07.868Z,8.25
2022-09-04T07:20:41.264Z,6.78
2022-09-04T07:22:00.454Z,11.05
2022-09-04T07:23:10.448Z,9.25
2022-09-04T07:24:51.103Z,8.02
2022-09-04T07:26:07.423Z,7.05
2022-09-04T07:27:27.511Z,7.95
2022-09-04T07:29:03.681Z,7.47
2022-09-04T07:30:08.167Z,8.43
2022-09-04T07:31:42.098Z,10.02
2022-09-04T07:32:57.584Z,8.30
2022-09-04T07:34:23.493Z,7.63
2022-09-04T07:35:39.658Z,7.53
2022-09-04T07:37:01.527Z,7.30
2022-09-04T07:38:37.809Z,7.22
2022-09-04T07:40:03.511Z,12.27
2022-09-04T07:41:28.285Z,15.10
2022-09-04T07:42:40.127Z,12.98
2022-09-04T07:44:05.152Z,12.48
2022-09-04T07:45:22.620Z,14.82
2022-09-04T07:47:02.207Z,11.95
2022-09-04T07:48:22.161Z,15.02
2022-09-04T07:49:37.266Z,15.55
2022-09-04T07:51:10.703Z,14.75
2022-09-04T07:52:40.142Z,13.32
2022-09-04T07:53:53.857Z,10.77
2022-09-04T07:55:17.930Z,14.00
2022-09-04T07:56:25.951Z,17.58
2022-09-04T07:57:56.883Z,14.32
2022-09-04T07:59:36.962Z,11.45
2022-09-04T08:00:59.634Z,12.98
2022-09-04T08:02:04.129Z,16.02
2022-09-04T08:03:17.677Z,14.20
2022-09-04T08:04:19.178Z,16.30
2022-09-04T08:05:36.857Z,14.90
2022-09-04T08:06:55.490Z,11.13
2022-09-04T08:08:26.038Z,13.38
2022-09-04T08:09:45.649Z,11.85
2022-09-04T08:11:07.965Z,9.80
2022-09-04T08:12:10.151Z,14.70
2022-09-04T08:13:49.201Z,16.10
2022-09-04T08:15:28.209Z,16.80
2022-09-04T08:17:11.198Z,15.55
2022-09-04T08:18:53.227Z,14.30
2022-09-04T08:20:03.857Z,13.52
2022-09-04T08:21:23.366Z,16.25
2022-09-04T08:23:13.004Z,15.15
2022-09-04T08:24:22.649Z,16.52
2022-09-04T08:25:46.177Z,13.77
2022-09-04T08:27:04.082Z,16.33
2022-09-04T08:28:22.367Z,16.83
2022-09-04T08:29:32.715Z,13.85
2022-09-04T08:30:55.148Z,14.98
2022-09-04T08:32:19.406Z,12.45
2022-09-04T08:33:44.850Z,14.80
2022-09-04T08:35:03.210Z,14.07
2022-09-04T08:36:39.939Z,12.80
2022-09-04T08:37:58.164Z,12.75
2022-09-04T08:39:14.941Z,13.68
2022-09-04T08:40:35.211Z,13.30
2022-09-04T08:42:13.947Z,12.82
2022-09-04T08:43:37.035Z,11.98
2022-09-04T08:45:06.729Z,13.10
2022-09-04T08:46:36.256Z,11.93
2022-09-04T08:47:43.601Z,11.50
2022-09-04T08:49:02.448Z,11.63
2022-09-04T08:50:23.914Z,11.00
2022-09-04T08:51:43.865Z,11.88
2022-09-04T08:52:52.647Z,10.88
2022-09-04T08:54:26.146Z,11.68
2022-09-04T08:55:59.926Z,11.63
2022-09-04T08:57:13.808Z,10.60
2022-09-04T08:58:55.137Z,10.75
2022-09-04T09:00:15.223Z,10.55
2022-09-04T09:01:45.807Z,10.30
2022-09-04T09:02:59.652Z,10.15
2022-09-04T09:04:31.519Z,9.68
2022-09-04T09:05:53.601Z,9.00
2022-09-04T09:07:04.287Z,9.20
2022-09-04T09:08:31.479Z,9.63
2022-09-04T09:10:09.423Z,9.68
2022-09-04T09:11:32.711Z,9.55
2022-09-04T09:12:55.270Z,9.45
2022-09-04T09:14:31.979Z,9.15
2022-09-04T09:15:46.875Z,9.38
2022-09-04T09:17:14.151Z,9.02
2022-09-04T09:18:40.354Z,8.63
2022-09-04T09:20:19.391Z,9.68
2022-09-04T09:21:44.311Z,10.25
2022-09-04T09:23:17.766Z,9.80
2022-09-04T09:24:41.492Z,10.95
2022-09-04T09:25:44.083Z,9.80
2022-09-04T09:27:09.338Z,10.63
2022-09-04T09:28:38.812Z,9.88
2022-09-04T09:29:43.763Z,10.10
2022-09-04T09:31:11.201Z,9.35
2022-09-04T09:32:31.654Z,10.18
2022-09-04T09:34:11.361Z,8.45
2022-09-04T09:35:55.883Z,8.48
2022-09-04T09:37:15.474Z,7.75
2022-09-04T09:38:39.774Z,8.32
2022-09-04T09:39:59.953Z,8.35
2022-09-04T09:41:42.569Z,9.63
2022-09-04T09:43:18.157Z,9.93
2022-09-04T09:44:47.527Z,9.90
2022-09-04T09:46:34.778Z,9.25
2022-09-04T09:48:15.379Z,8.25
2022-09-04T09:49:43.544Z,7.47
2022-09-04T09:51:03.093Z,7.45
2022-09-04T09:52:30.836Z,7.72
2022-09-04T09:53:52.267Z,7.10
2022-09-04T09:54:59.819Z,7.07
2022-09-04T09:56:26.275Z,7.45
2022-09-04T09:57:34.110Z,8.07
2022-09-04T09:58:54.388Z,8.02
2022-09-04T10:00:12.564Z,7.75
2022-09-04T10:01:26.065Z,8.38
2022-09-04T10:02:49.323Z,8.43
2022-09-04T10:04:11.634Z,10.98
2022-09-04T10:05:13.165Z,9.52
2022-09-04T10:06:29.300Z,9.00
2022-09-04T10:07:56.788Z,8.77
2022-09-04T10:09:09.525Z,7.60
2022-09-04T10:10:39.110Z,7.95
2022-09-04T10:11:49.767Z,8.52
2022-09-04T10:13:30.244Z,7.72
2022-09-04T10:15:07.918Z,8.90
2022-09-04T10:16:32.494Z,8.25
2022-09-04T10:17:52.948Z,7.72
2022-09-04T10:19:03.814Z,7.80
2022-09-04T10:20:30.313Z,7.80
2022-09-04T10:22:09.281Z,8.05
2022-09-04T10:23:22.704Z,8.10
2022-09-04T10:24:39.137Z,7.50
2022-09-04T10:25:58.731Z,7.70
2022-09-04T10:27:09.316Z,7.63
2022-09-04T10:28:45.131Z,7.22
2022-09-04T10:30:06.635Z,7.60
2022-09-04T10:31:24.510Z,7.80
2022-09-04T10:32:32.959Z,8.00
2022-09-04T10:34:10.407Z,7.30
2022-09-04T10:35:22.176Z,7.22
2022-09-04T10:36:41.676Z,7.53
2022-09-04T10:38:19.781Z,7.40
2022-09-04T10:40:00.608Z,7.57
2022-09-04T10:41:23.601Z,7.40
2022-09-04T10:42:25.433Z,7.53
2022-09-04T10:44:08.426Z,7.28
2022-09-04T10:45:19.197Z,7.45
2022-09-04T10:46:29.577Z,7.13
2022-09-04T10:47:45.008Z,7.38
2022-09-04T10:48:49.260Z,7.25
2022-09-04T10:50:10.829Z,7.20
2022-09-04T10:51:43.490Z,6.80
2022-09-04T10:53:09.038Z,7.15
2022-09-04T10:54:27.229Z,7.32
2022-09-04T10:56:00.777Z,6.50
2022-09-04T10:57:02.308Z,7.15
2022-09-04T10:58:26.225Z,7.35
2022-09-04T10:59:33.569Z,6.35
2022-09-04T11:01:10.607Z,7.05
2022-09-04T11:02:50.911Z,6.88
2022-09-04T11:03:58.221Z,6.80
2022-09-04T11:05:08.582Z,7.00
2022-09-04T11:06:27.170Z,7.50
2022-09-04T11:08:06.974Z,7.30
2022-09-04T11:09:29.946Z,6.95
2022-09-04T11:10:37.620Z,7.82
2022-09-04T11:11:45.000Z,7.68
2022-09-04T11:13:09.084Z,7.40
2022-09-04T11:14:19.707Z,7.50
2022-09-04T11:15:34.582Z,7.20
2022-09-04T11:17:09.704Z,6.68
2022-09-04T11:18:45.607Z,7.30
2022-09-04T11:20:05.991Z,7.20
2022-09-04T11:21:44.434Z,6.63
2022-09-04T11:23:07.748Z,6.80
2022-09-04T11:24:35.262Z,7.50
2022-09-04T11:25:45.814Z,6.45
2022-09-04T11:27:13.708Z,6.93
2022-09-04T11:28:20.451Z,7.25
2022-09-04T11:29:43.680Z,6.18
2022-09-04T11:30:53.901Z,6.85
2022-09-04T11:32:07.930Z,6.38
2022-09-04T11:33:24.704Z,6.60
2022-09-04T11:34:44.698Z,7.18
2022-09-04T11:35:55.286Z,7.28
2022-09-04T11:37:11.796Z,7.40
2022-09-04T11:38:31.508Z,7.05
2022-09-04T11:39:53.891Z,6.25
2022-09-04T11:41:15.576Z,7.13
2022-09-04T11:42:41.331Z,7.18
2022-09-04T11:44:15.479Z,6.43
2022-09-04T11:45:29.373Z,6.78
2022-09-04T11:47:00.413Z,6.63
2022-09-04T11:48:26.414Z,6.57
2022-09-04T11:49:44.615Z,6.63
2022-09-04T11:51:23.682Z,6.57
2022-09-04T11:52:46.728Z,7.15
2022-09-04T11:54:11.380Z,6.43
2022-09-04T11:56:00.719Z,7.25
2022-09-04T11:57:17.489Z,7.30
2022-09-04T11:58:52.217Z,6.65
2022-09-04T12:00:03.397Z,7.28
2022-09-04T12:01:32.284Z,6.40
2022-09-04T12:02:52.282Z,6.20
2022-09-04T12:04:15.098Z,5.93
2022-09-04T12:05:39.320Z,6.18
2022-09-04T12:07:12.450Z,5.70
2022-09-04T12:08:13.992Z,7.03
2022-09-04T12:09:23.311Z,6.53
2022-09-04T12:11:09.843Z,6.55
2022-09-04T12:12:14.510Z,6.07
2022-09-04T12:13:48.217Z,6.15
2022-09-04T12:15:08.739Z,5.93
2022-09-04T12:16:30.213Z,6.13
2022-09-04T12:17:55.332Z,5.97
2022-09-04T12:18:59.626Z,5.80
2022-09-04T12:20:28.060Z,5.53
2022-09-04T12:21:53.036Z,6.18
2022-09-04T12:23:09.462Z,6.40
2022-09-04T12:24:10.995Z,6.75
2022-09-04T12:25:36.733Z,6.10
2022-09-04T12:26:51.477Z,7.20
2022-09-04T12:28:06.259Z,6.53
2022-09-04T12:29:17.295Z,5.93
2022-09-04T12:30:32.492Z,6.13
2022-09-04T12:32:09.289Z,6.82
2022-09-04T12:33:29.432Z,5.85
2022-09-04T12:34:31.011Z,5.72
2022-09-04T12:35:43.954Z,6.10
2022-09-04T12:37:19.859Z,5.65
2022-09-04T12:38:37.619Z,6.53
2022-09-04T12:40:10.425Z,5.28
2022-09-04T12:41:19.462Z,5.47
2022-09-04T12:42:36.072Z,5.40
2022-09-04T12:43:46.787Z,6.13
2022-09-04T12:45:36.589Z,6.05
2022-09-04T12:47:33.189Z,5.60
2022-09-04T12:48:42.917Z,5.43
2022-09-04T12:49:48.159Z,5.60
2022-09-04T12:51:16.796Z,5.53
2022-09-04T12:52:56.813Z,5.95
2022-09-04T12:54:20.663Z,5.75
2022-09-04T12:55:36.354Z,6.32
2022-09-04T12:56:56.399Z,5.20
2022-09-04T12:58:21.577Z,4.97
2022-09-04T12:59:38.285Z,5.82
2022-09-04T13:00:59.714Z,5.18
2022-09-04T13:02:38.812Z,5.65
2022-09-04T13:04:03.627Z,4.57
2022-09-04T13:05:12.051Z,6.05
2022-09-04T13:06:19.360Z,5.82
2022-09-04T13:07:40.987Z,5.35
2022-09-04T13:08:55.270Z,4.82
2022-09-04T13:10:06.825Z,5.40
2022-09-04T13:11:29.616Z,5.00
2022-09-04T13:12:49.434Z,5.60
2022-09-04T13:13:55.578Z,4.38
2022-09-04T13:15:31.091Z,4.95
2022-09-04T13:16:59.281Z,6.35
2022-09-04T13:18:21.270Z,6.35
2022-09-04T13:19:46.011Z,7.18
2022-09-04T13:21:13.184Z,7.30
2022-09-04T13:22:52.808Z,7.63
2022-09-04T13:24:27.993Z,7.40
2022-09-04T13:25:57.135Z,6.85
2022-09-04T13:27:26.885Z,7.35
2022-09-04T13:29:08.478Z,7.18
2022-09-04T13:30:20.770Z,7.03
2022-09-04T13:31:53.162Z,7.30
2022-09-04T13:33:07.090Z,6.30
2022-09-04T13:34:23.984Z,7.13
2022-09-04T13:35:59.025Z,7.50
2022-09-04T13:37:30.233Z,6.90
2022-09-04T13:38:52.532Z,7.00
2022-09-04T13:40:23.292Z,7.00
2022-09-04T13:42:02.580Z,6.53
2022-09-04T13:43:16.129Z,6.70
2022-09-04T13:44:40.883Z,6.88
2022-09-04T13:45:46.971Z,6.35
2022-09-04T13:47:10.034Z,7.00
2022-09-04T13:48:41.357Z,6.15
2022-09-04T13:49:56.678Z,6.18
2022-09-04T13:51:04.109Z,5.90
2022-09-04T13:52:27.788Z,4.50
2022-09-04T13:53:37.065Z,4.72
2022-09-04T13:54:52.759Z,5.03
2022-09-04T13:55:58.305Z,4.53
2022-09-04T13:57:31.986Z,5.32
2022-09-04T13:58:39.648Z,5.60
2022-09-04T13:59:44.343Z,6.35
2022-09-04T14:00:51.847Z,5.65
2022-09-04T14:01:58.383Z,4.20
2022-09-04T14:03:04.071Z,5.07
2022-09-04T14:04:12.975Z,4.90
2022-09-04T14:05:20.624Z,4.20
2022-09-04T14:06:25.194Z,4.20
2022-09-04T14:07:36.158Z,4.93
2022-09-04T14:08:43.200Z,4.15
2022-09-04T14:09:48.693Z,4.15
2022-09-04T14:10:53.191Z,4.72
2022-09-04T14:12:06.746Z,3.80
2022-09-04T14:13:41.742Z,3.88
2022-09-04T14:14:49.058Z,3.90
2022-09-04T14:16:06.818Z,3.83
2022-09-04T14:17:09.806Z,4.32
2022-09-04T14:18:29.924Z,4.00
2022-09-04T14:19:43.560Z,4.10
2022-09-04T14:21:03.352Z,4.45
2022-09-04T14:22:14.998Z,3.88
2022-09-04T14:23:28.930Z,3.80
2022-09-04T14:24:41.026Z,4.80
2022-09-04T14:26:30.632Z,4.18
2022-09-04T14:27:56.700Z,4.20
2022-09-04T14:29:22.346Z,4.30
2022-09-04T14:30:23.957Z,4.18
2022-09-04T14:31:25.553Z,4.55
2022-09-04T14:32:48.837Z,4.43
2022-09-04T14:34:02.356Z,5.35
2022-09-04T14:35:42.507Z,5.05
2022-09-04T14:36:56.436Z,5.05
2022-09-04T14:38:10.084Z,4.07
2022-09-04T14:39:23.738Z,3.63
2022-09-04T14:40:38.857Z,3.97
2022-09-04T14:42:05.612Z,4.05
2022-09-04T14:43:13.972Z,4.50
2022-09-04T14:44:30.786Z,4.10
2022-09-04T14:46:02.640Z,3.55
2022-09-04T14:47:16.728Z,3.30
2022-09-04T14:48:24.350Z,3.38
2022-09-04T14:49:31.776Z,3.97
2022-09-04T14:50:53.725Z,4.55
2022-09-04T14:51:56.676Z,4.20
2022-09-04T14:53:03.826Z,3.90
2022-09-04T14:54:07.983Z,3.97
2022-09-04T14:55:17.963Z,3.55
2022-09-04T14:56:26.962Z,3.90
2022-09-04T14:57:48.112Z,3.35
2022-09-04T14:58:57.951Z,4.10
2022-09-04T15:00:11.424Z,3.67
2022-09-04T15:01:24.868Z,3.55
2022-09-04T15:02:37.079Z,3.05
2022-09-04T15:03:49.245Z,4.00
2022-09-04T15:04:59.273Z,3.30
2022-09-04T15:06:12.454Z,3.60
2022-09-04T15:07:29.722Z,3.45
2022-09-04T15:08:40.528Z,3.80
2022-09-04T15:09:47.871Z,3.83
2022-09-04T15:10:53.770Z,4.13
2022-09-04T15:12:24.296Z,3.97
2022-09-04T15:13:32.045Z,4.32
2022-09-04T15:14:36.948Z,4.10
2022-09-04T15:15:59.229Z,3.70
2022-09-04T15:17:05.027Z,3.40
2022-09-04T15:18:40.556Z,3.83
2022-09-04T15:19:52.360Z,4.03
2022-09-04T15:21:12.880Z,4.50
2022-09-04T15:22:20.334Z,4.07
2022-09-04T15:23:30.951Z,3.90
2022-09-04T15:24:38.736Z,3.80
2022-09-04T15:25:59.112Z,3.65
2022-09-04T15:27:12.552Z,4.45
2022-09-04T15:28:25.361Z,4.43
2022-09-04T15:29:36.504Z,4.10
2022-09-04T15:30:45.491Z,3.53
2022-09-04T15:31:47.542Z,3.90
2022-09-04T15:33:02.584Z,3.95
2022-09-04T15:34:07.775Z,4.03
2022-09-04T15:35:35.755Z,3.33
2022-09-04T15:36:39.158Z,4.25
2022-09-04T15:37:48.274Z,4.45
2022-09-04T15:38:59.110Z,3.65
2022-09-04T15:41:05.823Z,4.20
2022-09-04T15:42:12.372Z,3.45
2022-09-04T15:43:31.907Z,3.97
2022-09-04T15:44:41.541Z,3.53
2022-09-04T15:45:49.816Z,3.85
2022-09-04T15:46:59.782Z,4.28
2022-09-04T15:48:35.929Z,3.75
2022-09-04T15:49:42.776Z,3.97
2022-09-04T15:51:03.701Z,4.00
2022-09-04T15:52:38.497Z,4.07
2022-09-04T15:53:50.377Z,3.60
2022-09-04T15:55:24.117Z,3.35
2022-09-04T15:56:37.085Z,3.72
2022-09-04T15:57:59.777Z,4.10
2022-09-04T15:59:30.310Z,4.28
2022-09-04T16:00:37.907Z,3.35
2022-09-04T16:02:06.195Z,3.55
2022-09-04T16:03:29.238Z,3.63
2022-09-04T16:04:42.560Z,3.67
2022-09-04T16:05:49.320Z,4.22
2022-09-04T16:07:20.276Z,3.63
2022-09-04T16:08:41.216Z,3.53
2022-09-04T16:10:04.481Z,4.30
2022-09-04T16:11:11.667Z,3.78
2022-09-04T16:12:22.724Z,3.78
2022-09-04T16:13:27.262Z,3.80
2022-09-04T16:14:44.541Z,4.10
2022-09-04T16:15:48.019Z,3.70
2022-09-04T16:16:55.388Z,4.18
2022-09-04T16:18:02.698Z,3.92
2022-09-04T16:19:25.141Z,3.90
2022-09-04T16:20:38.377Z,3.83
2022-09-04T16:22:04.660Z,3.67
2022-09-04T16:23:09.869Z,4.00
2022-09-04T16:24:16.435Z,3.63
2022-09-04T16:25:29.144Z,3.75
2022-09-04T16:26:33.031Z,3.67
2022-09-04T16:27:45.487Z,4.03
2022-09-04T16:28:52.687Z,3.92
2022-09-04T16:30:04.036Z,3.95
2022-09-04T16:31:14.514Z,4.00
2022-09-04T16:32:26.178Z,4.50
2022-09-04T16:33:50.432Z,4.20
2022-09-04T16:34:57.387Z,4.05
2022-09-04T16:36:04.838Z,4.00
2022-09-04T16:37:19.185Z,4.20
2022-09-04T16:38:35.359Z,4.40
2022-09-04T16:40:12.478Z,4.15
2022-09-04T16:41:29.118Z,4.40
2022-09-04T16:42:46.932Z,4.30
2022-09-04T16:44:22.076Z,4.25
2022-09-04T16:45:36.113Z,4.15
2022-09-04T16:46:45.260Z,4.10
2022-09-04T16:47:59.126Z,4.32
2022-09-04T16:49:19.946Z,4.05
2022-09-04T16:50:30.677Z,4.20
2022-09-04T16:51:42.741Z,4.00
2022-09-04T16:53:13.376Z,3.78
2022-09-04T16:54:40.435Z,4.38
2022-09-04T16:55:49.690Z,3.95
2022-09-04T16:57:15.122Z,3.90
2022-09-04T16:58:33.899Z,3.92
2022-09-04T17:00:06.829Z,3.90
2022-09-04T17:01:25.944Z,3.80
2022-09-04T17:02:55.903Z,3.38
2022-09-04T17:04:26.450Z,3.90
2022-09-04T17:05:34.907Z,3.95
2022-09-04T17:06:57.472Z,4.22
2022-09-04T17:08:26.443Z,3.97
2022-09-04T17:09:43.383Z,4.32
2022-09-04T17:10:54.435Z,4.15
2022-09-04T17:12:07.349Z,4.22
2022-09-04T17:13:16.727Z,3.70
2022-09-04T17:14:18.580Z,3.97
2022-09-04T17:15:30.592Z,3.95
2022-09-04T17:16:38.111Z,4.82
2022-09-04T17:17:42.616Z,4.40
2022-09-04T17:18:49.725Z,4.25
2022-09-04T17:20:22.179Z,4.30
2022-09-04T17:28:54.533Z,4.28
2022-09-04T17:29:04.838Z,4.13
2022-09-04T17:29:09.937Z,4.20
2022-09-04T17:29:12.273Z,4.38
2022-09-04T17:29:19.625Z,4.10
2022-09-04T17:29:54.729Z,4.43
2022-09-04T17:31:01.726Z,4.13
2022-09-04T17:33:46.130Z,4.20
2022-09-04T17:40:40.467Z,4.03
2022-09-04T17:40:46.389Z,4.05
2022-09-04T17:40:51.887Z,4.78
2022-09-04T17:40:52.230Z,4.20
2022-09-04T17:40:56.941Z,4.63
2022-09-04T17:42:14.172Z,4.18
2022-09-04T17:43:23.329Z,4.25
2022-09-04T17:45:04.024Z,3.97
2022-09-04T17:46:26.508Z,4.07
2022-09-04T17:47:30.916Z,4.15